sensor_id;sensor_type;location;lat;lon;timestamp;temperature;humidity
13638;DHT22;6892;50.916;4.356;2022-09-17T00:01:02;10.30;99.90
13638;DHT22;6892;50.916;4.356;2022-09-17T00:03:29;10.30;99.90
13638;DHT22;6892;50.916;4.356;2022-09-17T00:05:58;10.30;99.90
13638;DHT22;6892;50.916;4.356;2022-09-17T00:08:27;10.30;99.90
13638;DHT22;6892;50.916;4.356;2022-09-17T00:10:54;10.30;99.90
13638;DHT22;6892;50.916;4.356;2022-09-17T00:13:21;10.40;99.90
13638;DHT22;6892;50.916;4.356;2022-09-17T00:15:48;10.40;99.90
13638;DHT22;6892;50.916;4.356;2022-09-17T00:18:23;10.40;99.90
13638;DHT22;6892;50.916;4.356;2022-09-17T00:20:52;10.30;99.90
13638;DHT22;6892;50.916;4.356;2022-09-17T00:23:20;10.40;99.90
13638;DHT22;6892;50.916;4.356;2022-09-17T00:25:51;10.40;99.90
13638;DHT22;6892;50.916;4.356;2022-09-17T00:28:20;10.40;99.90
13638;DHT22;6892;50.916;4.356;2022-09-17T00:30:52;10.30;99.90
13638;DHT22;6892;50.916;4.356;2022-09-17T00:33:20;10.30;99.90
13638;DHT22;6892;50.916;4.356;2022-09-17T00:35:57;10.30;99.90
13638;DHT22;6892;50.916;4.356;2022-09-17T00:38:25;10.30;99.90
13638;DHT22;6892;50.916;4.356;2022-09-17T00:40:53;10.30;99.90
13638;DHT22;6892;50.916;4.356;2022-09-17T00:43:36;10.30;99.90
13638;DHT22;6892;50.916;4.356;2022-09-17T00:46:17;10.40;99.90
13638;DHT22;6892;50.916;4.356;2022-09-17T00:48:45;10.30;99.90
13638;DHT22;6892;50.916;4.356;2022-09-17T00:51:16;10.30;99.90
13638;DHT22;6892;50.916;4.356;2022-09-17T00:53:53;10.30;99.90
13638;DHT22;6892;50.916;4.356;2022-09-17T00:56:21;10.30;99.90
13638;DHT22;6892;50.916;4.356;2022-09-17T00:58:52;10.40;99.90
13638;DHT22;6892;50.916;4.356;2022-09-17T01:01:23;10.40;99.90
13638;DHT22;6892;50.916;4.356;2022-09-17T01:03:51;10.40;99.90
13638;DHT22;6892;50.916;4.356;2022-09-17T01:06:21;10.40;99.90
13638;DHT22;6892;50.916;4.356;2022-09-17T01:08:58;10.40;99.90
13638;DHT22;6892;50.916;4.356;2022-09-17T01:11:36;10.40;99.90
13638;DHT22;6892;50.916;4.356;2022-09-17T01:14:09;10.40;99.90
13638;DHT22;6892;50.916;4.356;2022-09-17T01:16:43;10.40;99.90
13638;DHT22;6892;50.916;4.356;2022-09-17T01:19:22;10.40;99.90
13638;DHT22;6892;50.916;4.356;2022-09-17T01:21:59;10.50;99.90
13638;DHT22;6892;50.916;4.356;2022-09-17T01:30:15;10.50;99.90
13638;DHT22;6892;50.916;4.356;2022-09-17T01:32:46;10.50;99.90
13638;DHT22;6892;50.916;4.356;2022-09-17T01:35:20;10.50;99.90
13638;DHT22;6892;50.916;4.356;2022-09-17T01:37:53;10.50;99.90
13638;DHT22;6892;50.916;4.356;2022-09-17T01:40:24;10.50;99.90
13638;DHT22;6892;50.916;4.356;2022-09-17T01:42:55;10.50;99.90
13638;DHT22;6892;50.916;4.356;2022-09-17T01:45:24;10.50;99.90
13638;DHT22;6892;50.916;4.356;2022-09-17T01:47:56;10.50;99.90
13638;DHT22;6892;50.916;4.356;2022-09-17T01:50:25;10.50;99.90
13638;DHT22;6892;50.916;4.356;2022-09-17T01:52:54;10.50;99.90
13638;DHT22;6892;50.916;4.356;2022-09-17T01:55:23;10.50;99.90
13638;DHT22;6892;50.916;4.356;2022-09-17T01:57:54;10.50;99.90
13638;DHT22;6892;50.916;4.356;2022-09-17T02:00:22;10.50;99.90
13638;DHT22;6892;50.916;4.356;2022-09-17T02:02:51;10.50;99.90
13638;DHT22;6892;50.916;4.356;2022-09-17T02:05:26;10.50;99.90
13638;DHT22;6892;50.916;4.356;2022-09-17T02:07:56;10.50;99.90
13638;DHT22;6892;50.916;4.356;2022-09-17T02:10:26;10.60;99.90
13638;DHT22;6892;50.916;4.356;2022-09-17T02:13:07;10.50;99.90
13638;DHT22;6892;50.916;4.356;2022-09-17T02:15:39;10.60;99.90
13638;DHT22;6892;50.916;4.356;2022-09-17T02:18:22;10.60;99.90
13638;DHT22;6892;50.916;4.356;2022-09-17T02:20:53;10.60;99.90
13638;DHT22;6892;50.916;4.356;2022-09-17T02:23:26;10.60;99.90
13638;DHT22;6892;50.916;4.356;2022-09-17T02:25:59;10.60;99.90
13638;DHT22;6892;50.916;4.356;2022-09-17T02:28:40;10.60;99.90
13638;DHT22;6892;50.916;4.356;2022-09-17T02:31:38;10.60;99.90
13638;DHT22;6892;50.916;4.356;2022-09-17T02:33:56;10.50;99.90
13638;DHT22;6892;50.916;4.356;2022-09-17T02:36:30;10.50;99.90
13638;DHT22;6892;50.916;4.356;2022-09-17T02:39:00;10.50;99.90
13638;DHT22;6892;50.916;4.356;2022-09-17T02:41:31;10.50;99.90
13638;DHT22;6892;50.916;4.356;2022-09-17T02:44:01;10.50;99.90
13638;DHT22;6892;50.916;4.356;2022-09-17T02:46:38;10.50;99.90
13638;DHT22;6892;50.916;4.356;2022-09-17T02:49:23;10.50;99.90
13638;DHT22;6892;50.916;4.356;2022-09-17T02:51:58;10.50;99.90
13638;DHT22;6892;50.916;4.356;2022-09-17T02:54:30;10.40;99.90
13638;DHT22;6892;50.916;4.356;2022-09-17T02:57:05;10.40;99.90
13638;DHT22;6892;50.916;4.356;2022-09-17T02:59:38;10.40;99.90
13638;DHT22;6892;50.916;4.356;2022-09-17T03:02:21;10.40;99.90
13638;DHT22;6892;50.916;4.356;2022-09-17T03:04:52;10.30;99.90
13638;DHT22;6892;50.916;4.356;2022-09-17T03:07:24;10.20;99.90
13638;DHT22;6892;50.916;4.356;2022-09-17T03:09:55;10.20;99.90
13638;DHT22;6892;50.916;4.356;2022-09-17T03:12:27;10.10;99.90
13638;DHT22;6892;50.916;4.356;2022-09-17T03:14:54;10.00;99.90
13638;DHT22;6892;50.916;4.356;2022-09-17T03:17:23;10.00;99.90
13638;DHT22;6892;50.916;4.356;2022-09-17T03:19:50;10.00;99.90
13638;DHT22;6892;50.916;4.356;2022-09-17T03:22:19;10.00;99.90
13638;DHT22;6892;50.916;4.356;2022-09-17T03:24:47;10.00;99.90
13638;DHT22;6892;50.916;4.356;2022-09-17T03:27:19;9.90;99.90
13638;DHT22;6892;50.916;4.356;2022-09-17T03:29:54;9.90;99.90
13638;DHT22;6892;50.916;4.356;2022-09-17T03:32:21;9.90;99.90
13638;DHT22;6892;50.916;4.356;2022-09-17T03:34:48;9.90;99.90
13638;DHT22;6892;50.916;4.356;2022-09-17T03:37:17;9.90;99.90
13638;DHT22;6892;50.916;4.356;2022-09-17T03:39:53;9.90;99.90
13638;DHT22;6892;50.916;4.356;2022-09-17T03:42:22;9.80;99.90
13638;DHT22;6892;50.916;4.356;2022-09-17T03:44:50;9.80;99.90
13638;DHT22;6892;50.916;4.356;2022-09-17T03:47:18;9.80;99.90
13638;DHT22;6892;50.916;4.356;2022-09-17T03:49:48;9.80;99.90
13638;DHT22;6892;50.916;4.356;2022-09-17T03:52:21;9.70;99.90
13638;DHT22;6892;50.916;4.356;2022-09-17T03:54:48;9.70;99.90
13638;DHT22;6892;50.916;4.356;2022-09-17T03:57:17;9.70;99.90
13638;DHT22;6892;50.916;4.356;2022-09-17T03:59:47;9.70;99.90
13638;DHT22;6892;50.916;4.356;2022-09-17T04:02:18;9.60;99.90
13638;DHT22;6892;50.916;4.356;2022-09-17T04:04:59;9.70;99.90
13638;DHT22;6892;50.916;4.356;2022-09-17T04:07:29;9.60;99.90
13638;DHT22;6892;50.916;4.356;2022-09-17T04:09:59;9.60;99.90
13638;DHT22;6892;50.916;4.356;2022-09-17T04:12:30;9.60;99.90
13638;DHT22;6892;50.916;4.356;2022-09-17T04:15:00;9.60;99.90
13638;DHT22;6892;50.916;4.356;2022-09-17T04:17:35;9.60;99.90
13638;DHT22;6892;50.916;4.356;2022-09-17T04:20:03;9.60;99.90
13638;DHT22;6892;50.916;4.356;2022-09-17T04:22:31;9.60;99.90
13638;DHT22;6892;50.916;4.356;2022-09-17T04:24:58;9.50;99.90
13638;DHT22;6892;50.916;4.356;2022-09-17T04:27:25;9.50;99.90
13638;DHT22;6892;50.916;4.356;2022-09-17T04:29:54;9.50;99.90
13638;DHT22;6892;50.916;4.356;2022-09-17T04:32:27;9.50;99.90
13638;DHT22;6892;50.916;4.356;2022-09-17T04:34:54;9.50;99.90
13638;DHT22;6892;50.916;4.356;2022-09-17T04:37:22;9.50;99.90
13638;DHT22;6892;50.916;4.356;2022-09-17T04:39:51;9.50;99.90
13638;DHT22;6892;50.916;4.356;2022-09-17T04:42:18;9.50;99.90
13638;DHT22;6892;50.916;4.356;2022-09-17T04:44:45;9.50;99.90
13638;DHT22;6892;50.916;4.356;2022-09-17T04:47:12;9.50;99.90
13638;DHT22;6892;50.916;4.356;2022-09-17T04:49:42;9.50;99.90
13638;DHT22;6892;50.916;4.356;2022-09-17T04:52:09;9.50;99.90
13638;DHT22;6892;50.916;4.356;2022-09-17T04:54:41;9.50;99.90
13638;DHT22;6892;50.916;4.356;2022-09-17T04:57:11;9.50;99.90
13638;DHT22;6892;50.916;4.356;2022-09-17T04:59:40;9.50;99.90
13638;DHT22;6892;50.916;4.356;2022-09-17T05:02:10;9.40;99.90
13638;DHT22;6892;50.916;4.356;2022-09-17T05:04:37;9.40;99.90
13638;DHT22;6892;50.916;4.356;2022-09-17T05:07:10;9.30;99.90
13638;DHT22;6892;50.916;4.356;2022-09-17T05:09:40;9.30;99.90
13638;DHT22;6892;50.916;4.356;2022-09-17T05:12:10;9.30;99.90
13638;DHT22;6892;50.916;4.356;2022-09-17T05:14:39;9.30;99.90
13638;DHT22;6892;50.916;4.356;2022-09-17T05:17:06;9.30;99.90
13638;DHT22;6892;50.916;4.356;2022-09-17T05:19:33;9.30;99.90
13638;DHT22;6892;50.916;4.356;2022-09-17T05:24:42;9.50;99.90
13638;DHT22;6892;50.916;4.356;2022-09-17T05:27:09;9.60;99.90
13638;DHT22;6892;50.916;4.356;2022-09-17T05:29:38;9.60;99.90
13638;DHT22;6892;50.916;4.356;2022-09-17T05:32:19;9.70;99.90
13638;DHT22;6892;50.916;4.356;2022-09-17T05:34:46;9.70;99.90
13638;DHT22;6892;50.916;4.356;2022-09-17T05:37:15;9.80;99.90
13638;DHT22;6892;50.916;4.356;2022-09-17T05:39:45;9.80;99.90
13638;DHT22;6892;50.916;4.356;2022-09-17T05:42:24;9.80;99.90
13638;DHT22;6892;50.916;4.356;2022-09-17T05:44:53;9.80;99.90
13638;DHT22;6892;50.916;4.356;2022-09-17T05:47:22;9.80;99.90
13638;DHT22;6892;50.916;4.356;2022-09-17T05:50:07;9.90;99.90
13638;DHT22;6892;50.916;4.356;2022-09-17T05:52:34;9.90;99.90
13638;DHT22;6892;50.916;4.356;2022-09-17T05:55:11;9.90;99.90
13638;DHT22;6892;50.916;4.356;2022-09-17T05:57:50;9.90;99.90
13638;DHT22;6892;50.916;4.356;2022-09-17T06:00:32;10.00;99.90
13638;DHT22;6892;50.916;4.356;2022-09-17T06:03:09;10.00;99.90
13638;DHT22;6892;50.916;4.356;2022-09-17T06:08:49;10.10;99.90
13638;DHT22;6892;50.916;4.356;2022-09-17T06:11:21;10.10;99.90
13638;DHT22;6892;50.916;4.356;2022-09-17T06:13:53;10.20;99.90
13638;DHT22;6892;50.916;4.356;2022-09-17T06:16:25;10.20;99.90
13638;DHT22;6892;50.916;4.356;2022-09-17T06:18:53;10.20;99.90
13638;DHT22;6892;50.916;4.356;2022-09-17T06:21:24;10.20;99.90
13638;DHT22;6892;50.916;4.356;2022-09-17T06:23:51;10.30;99.90
13638;DHT22;6892;50.916;4.356;2022-09-17T06:26:22;10.30;99.90
13638;DHT22;6892;50.916;4.356;2022-09-17T06:28:50;10.40;99.90
13638;DHT22;6892;50.916;4.356;2022-09-17T06:31:27;10.50;99.90
13638;DHT22;6892;50.916;4.356;2022-09-17T06:33:56;10.50;99.90
13638;DHT22;6892;50.916;4.356;2022-09-17T06:36:29;10.50;99.90
13638;DHT22;6892;50.916;4.356;2022-09-17T06:39:05;10.60;99.90
13638;DHT22;6892;50.916;4.356;2022-09-17T06:41:37;10.50;99.90
13638;DHT22;6892;50.916;4.356;2022-09-17T06:44:06;10.50;99.90
13638;DHT22;6892;50.916;4.356;2022-09-17T06:46:35;10.60;99.90
13638;DHT22;6892;50.916;4.356;2022-09-17T06:49:04;10.60;99.90
13638;DHT22;6892;50.916;4.356;2022-09-17T06:51:35;10.70;99.90
13638;DHT22;6892;50.916;4.356;2022-09-17T06:54:07;10.80;99.90
13638;DHT22;6892;50.916;4.356;2022-09-17T06:56:45;10.90;99.90
13638;DHT22;6892;50.916;4.356;2022-09-17T06:59:14;11.00;99.90
13638;DHT22;6892;50.916;4.356;2022-09-17T07:01:42;11.20;99.90
13638;DHT22;6892;50.916;4.356;2022-09-17T07:04:11;11.40;99.90
13638;DHT22;6892;50.916;4.356;2022-09-17T07:06:58;11.50;99.90
13638;DHT22;6892;50.916;4.356;2022-09-17T07:09:36;11.60;99.90
13638;DHT22;6892;50.916;4.356;2022-09-17T07:15:09;11.50;99.90
13638;DHT22;6892;50.916;4.356;2022-09-17T07:17:38;11.30;99.90
13638;DHT22;6892;50.916;4.356;2022-09-17T07:20:07;11.30;99.90
13638;DHT22;6892;50.916;4.356;2022-09-17T07:22:38;11.20;99.90
13638;DHT22;6892;50.916;4.356;2022-09-17T07:25:08;11.10;99.90
13638;DHT22;6892;50.916;4.356;2022-09-17T07:27:51;11.20;99.90
13638;DHT22;6892;50.916;4.356;2022-09-17T07:30:18;11.20;99.90
13638;DHT22;6892;50.916;4.356;2022-09-17T07:32:52;11.40;99.90
13638;DHT22;6892;50.916;4.356;2022-09-17T07:35:22;11.70;99.90
13638;DHT22;6892;50.916;4.356;2022-09-17T07:37:59;12.00;99.90
13638;DHT22;6892;50.916;4.356;2022-09-17T07:40:34;12.00;99.90
13638;DHT22;6892;50.916;4.356;2022-09-17T07:45:46;11.90;99.90
13638;DHT22;6892;50.916;4.356;2022-09-17T07:48:20;12.10;99.90
13638;DHT22;6892;50.916;4.356;2022-09-17T07:51:27;12.70;99.90
13638;DHT22;6892;50.916;4.356;2022-09-17T07:54:00;13.20;99.90
13638;DHT22;6892;50.916;4.356;2022-09-17T07:59:23;12.90;99.90
13638;DHT22;6892;50.916;4.356;2022-09-17T08:16:59;12.10;99.90
13638;DHT22;6892;50.916;4.356;2022-09-17T08:19:40;12.10;99.90
13638;DHT22;6892;50.916;4.356;2022-09-17T08:25:44;12.20;99.90
13638;DHT22;6892;50.916;4.356;2022-09-17T08:32:17;12.20;99.90
13638;DHT22;6892;50.916;4.356;2022-09-17T08:37:09;12.60;99.90
13638;DHT22;6892;50.916;4.356;2022-09-17T08:39:47;13.10;99.90
13638;DHT22;6892;50.916;4.356;2022-09-17T08:45:26;13.60;99.90
13638;DHT22;6892;50.916;4.356;2022-09-17T08:51:41;13.10;99.90
13638;DHT22;6892;50.916;4.356;2022-09-17T09:03:23;14.10;99.90
13638;DHT22;6892;50.916;4.356;2022-09-17T09:09:35;13.60;99.90
13638;DHT22;6892;50.916;4.356;2022-09-17T09:12:33;13.50;99.90
13638;DHT22;6892;50.916;4.356;2022-09-17T09:15:35;13.30;99.90
13638;DHT22;6892;50.916;4.356;2022-09-17T09:27:16;13.80;99.90
13638;DHT22;6892;50.916;4.356;2022-09-17T09:30:00;13.80;99.90
13638;DHT22;6892;50.916;4.356;2022-09-17T09:32:53;13.90;99.90
13638;DHT22;6892;50.916;4.356;2022-09-17T09:41:59;14.00;99.90
13638;DHT22;6892;50.916;4.356;2022-09-17T09:44:24;13.30;99.90
13638;DHT22;6892;50.916;4.356;2022-09-17T09:47:16;12.80;99.90
13638;DHT22;6892;50.916;4.356;2022-09-17T09:50:39;12.80;99.90
13638;DHT22;6892;50.916;4.356;2022-09-17T09:53:23;13.00;99.90
13638;DHT22;6892;50.916;4.356;2022-09-17T09:56:35;13.20;99.90
13638;DHT22;6892;50.916;4.356;2022-09-17T10:05:31;13.40;99.90
13638;DHT22;6892;50.916;4.356;2022-09-17T10:17:24;13.90;99.90
13638;DHT22;6892;50.916;4.356;2022-09-17T10:20:21;13.60;99.90
13638;DHT22;6892;50.916;4.356;2022-09-17T10:23:04;13.20;99.90
13638;DHT22;6892;50.916;4.356;2022-09-17T10:26:16;13.20;99.90
13638;DHT22;6892;50.916;4.356;2022-09-17T10:28:50;13.40;99.90
13638;DHT22;6892;50.916;4.356;2022-09-17T10:31:22;13.30;99.90
13638;DHT22;6892;50.916;4.356;2022-09-17T10:33:57;13.00;99.90
13638;DHT22;6892;50.916;4.356;2022-09-17T10:51:06;13.60;99.90
13638;DHT22;6892;50.916;4.356;2022-09-17T10:56:57;13.80;99.90
13638;DHT22;6892;50.916;4.356;2022-09-17T10:59:57;13.90;99.90
13638;DHT22;6892;50.916;4.356;2022-09-17T11:11:41;14.30;99.90
13638;DHT22;6892;50.916;4.356;2022-09-17T11:14:17;14.20;99.90
13638;DHT22;6892;50.916;4.356;2022-09-17T11:16:52;13.30;99.90
13638;DHT22;6892;50.916;4.356;2022-09-17T11:19:29;13.20;99.90
13638;DHT22;6892;50.916;4.356;2022-09-17T11:22:00;13.00;99.90
13638;DHT22;6892;50.916;4.356;2022-09-17T11:25:13;12.80;99.90
13638;DHT22;6892;50.916;4.356;2022-09-17T11:27:57;12.70;99.90
13638;DHT22;6892;50.916;4.356;2022-09-17T11:30:32;12.70;99.90
13638;DHT22;6892;50.916;4.356;2022-09-17T11:33:23;12.60;99.90
13638;DHT22;6892;50.916;4.356;2022-09-17T11:35:54;12.80;99.90
13638;DHT22;6892;50.916;4.356;2022-09-17T11:38:28;13.10;99.90
13638;DHT22;6892;50.916;4.356;2022-09-17T11:40:59;13.20;99.90
13638;DHT22;6892;50.916;4.356;2022-09-17T12:10:54;14.50;99.90
13638;DHT22;6892;50.916;4.356;2022-09-17T12:13:39;14.50;99.90
13638;DHT22;6892;50.916;4.356;2022-09-17T12:16:21;14.30;99.90
13638;DHT22;6892;50.916;4.356;2022-09-17T12:21:54;14.80;99.90
13638;DHT22;6892;50.916;4.356;2022-09-17T12:24:40;14.70;99.90
13638;DHT22;6892;50.916;4.356;2022-09-17T12:27:24;14.90;99.90
13638;DHT22;6892;50.916;4.356;2022-09-17T12:35:34;15.60;99.90
13638;DHT22;6892;50.916;4.356;2022-09-17T12:38:23;15.70;99.90
13638;DHT22;6892;50.916;4.356;2022-09-17T12:41:08;15.50;99.90
13638;DHT22;6892;50.916;4.356;2022-09-17T12:43:58;15.20;99.90
13638;DHT22;6892;50.916;4.356;2022-09-17T12:46:31;14.70;99.90
13638;DHT22;6892;50.916;4.356;2022-09-17T12:49:08;14.10;99.90
13638;DHT22;6892;50.916;4.356;2022-09-17T12:51:53;13.70;99.90
13638;DHT22;6892;50.916;4.356;2022-09-17T12:54:24;13.30;99.90
13638;DHT22;6892;50.916;4.356;2022-09-17T12:56:59;13.00;99.90
13638;DHT22;6892;50.916;4.356;2022-09-17T12:59:29;12.80;99.90
13638;DHT22;6892;50.916;4.356;2022-09-17T13:02:00;12.80;99.90
13638;DHT22;6892;50.916;4.356;2022-09-17T13:10:12;12.70;99.90
13638;DHT22;6892;50.916;4.356;2022-09-17T13:12:44;12.70;99.90
13638;DHT22;6892;50.916;4.356;2022-09-17T13:15:24;13.00;99.90
13638;DHT22;6892;50.916;4.356;2022-09-17T13:17:56;13.40;99.90
13638;DHT22;6892;50.916;4.356;2022-09-17T13:20:25;13.60;99.90
13638;DHT22;6892;50.916;4.356;2022-09-17T13:22:52;13.70;99.90
13638;DHT22;6892;50.916;4.356;2022-09-17T13:25:21;13.60;99.90
13638;DHT22;6892;50.916;4.356;2022-09-17T13:27:48;13.70;99.90
13638;DHT22;6892;50.916;4.356;2022-09-17T13:30:17;13.90;99.90
13638;DHT22;6892;50.916;4.356;2022-09-17T13:32:52;14.30;99.90
13638;DHT22;6892;50.916;4.356;2022-09-17T13:38:09;14.60;99.90
13638;DHT22;6892;50.916;4.356;2022-09-17T13:40:36;14.80;99.90
13638;DHT22;6892;50.916;4.356;2022-09-17T13:43:10;15.10;99.90
13638;DHT22;6892;50.916;4.356;2022-09-17T13:48:25;15.30;99.90
13638;DHT22;6892;50.916;4.356;2022-09-17T13:50:53;15.40;99.90
13638;DHT22;6892;50.916;4.356;2022-09-17T13:53:20;15.40;99.90
13638;DHT22;6892;50.916;4.356;2022-09-17T13:55:51;15.40;99.90
13638;DHT22;6892;50.916;4.356;2022-09-17T13:58:23;15.20;99.90
13638;DHT22;6892;50.916;4.356;2022-09-17T14:00:52;15.00;99.90
13638;DHT22;6892;50.916;4.356;2022-09-17T14:09:12;15.30;99.90
13638;DHT22;6892;50.916;4.356;2022-09-17T14:11:52;15.50;99.90
13638;DHT22;6892;50.916;4.356;2022-09-17T14:14:36;15.70;99.90
13638;DHT22;6892;50.916;4.356;2022-09-17T14:17:05;15.70;99.90
13638;DHT22;6892;50.916;4.356;2022-09-17T14:19:33;15.50;99.90
13638;DHT22;6892;50.916;4.356;2022-09-17T14:22:11;15.40;99.90
13638;DHT22;6892;50.916;4.356;2022-09-17T14:24:44;15.10;99.90
13638;DHT22;6892;50.916;4.356;2022-09-17T14:27:31;14.30;99.90
13638;DHT22;6892;50.916;4.356;2022-09-17T14:30:06;13.70;99.90
13638;DHT22;6892;50.916;4.356;2022-09-17T14:32:35;13.20;99.90
13638;DHT22;6892;50.916;4.356;2022-09-17T14:35:13;13.00;99.90
13638;DHT22;6892;50.916;4.356;2022-09-17T14:37:47;12.80;99.90
13638;DHT22;6892;50.916;4.356;2022-09-17T14:43:18;12.60;99.90
13638;DHT22;6892;50.916;4.356;2022-09-17T14:45:49;12.80;99.90
13638;DHT22;6892;50.916;4.356;2022-09-17T14:48:27;13.00;99.90
13638;DHT22;6892;50.916;4.356;2022-09-17T14:53:41;13.50;99.90
13638;DHT22;6892;50.916;4.356;2022-09-17T14:56:19;13.60;99.90
13638;DHT22;6892;50.916;4.356;2022-09-17T14:58:58;13.70;99.90
13638;DHT22;6892;50.916;4.356;2022-09-17T15:01:26;13.50;99.90
13638;DHT22;6892;50.916;4.356;2022-09-17T15:04:08;13.40;99.90
13638;DHT22;6892;50.916;4.356;2022-09-17T15:06:35;13.40;99.90
13638;DHT22;6892;50.916;4.356;2022-09-17T15:09:12;13.50;99.90
13638;DHT22;6892;50.916;4.356;2022-09-17T15:11:40;13.40;99.90
13638;DHT22;6892;50.916;4.356;2022-09-17T15:14:11;13.50;99.90
13638;DHT22;6892;50.916;4.356;2022-09-17T15:16:44;13.40;99.90
13638;DHT22;6892;50.916;4.356;2022-09-17T15:19:23;13.50;99.90
13638;DHT22;6892;50.916;4.356;2022-09-17T15:21:53;13.50;99.90
13638;DHT22;6892;50.916;4.356;2022-09-17T15:24:22;13.40;99.90
13638;DHT22;6892;50.916;4.356;2022-09-17T15:26:55;13.40;99.90
13638;DHT22;6892;50.916;4.356;2022-09-17T15:29:25;13.30;99.90
13638;DHT22;6892;50.916;4.356;2022-09-17T15:31:53;13.20;99.90
13638;DHT22;6892;50.916;4.356;2022-09-17T15:34:20;13.50;99.90
13638;DHT22;6892;50.916;4.356;2022-09-17T15:37:02;13.50;99.90
13638;DHT22;6892;50.916;4.356;2022-09-17T15:39:29;13.50;99.90
13638;DHT22;6892;50.916;4.356;2022-09-17T15:41:56;13.50;99.90
13638;DHT22;6892;50.916;4.356;2022-09-17T15:44:25;13.50;99.90
13638;DHT22;6892;50.916;4.356;2022-09-17T15:49:38;13.60;99.90
13638;DHT22;6892;50.916;4.356;2022-09-17T15:55:01;13.60;99.90
13638;DHT22;6892;50.916;4.356;2022-09-17T15:57:28;13.40;99.90
13638;DHT22;6892;50.916;4.356;2022-09-17T16:00:05;13.20;99.90
13638;DHT22;6892;50.916;4.356;2022-09-17T16:02:33;12.80;99.90
13638;DHT22;6892;50.916;4.356;2022-09-17T16:07:42;12.50;99.90
13638;DHT22;6892;50.916;4.356;2022-09-17T16:10:10;12.70;99.90
13638;DHT22;6892;50.916;4.356;2022-09-17T16:12:39;12.80;99.90
13638;DHT22;6892;50.916;4.356;2022-09-17T16:18:00;13.20;99.90
13638;DHT22;6892;50.916;4.356;2022-09-17T16:20:27;13.40;99.90
13638;DHT22;6892;50.916;4.356;2022-09-17T16:22:56;13.50;99.90
13638;DHT22;6892;50.916;4.356;2022-09-17T16:25:23;13.40;99.90
13638;DHT22;6892;50.916;4.356;2022-09-17T16:27:58;13.30;99.90
13638;DHT22;6892;50.916;4.356;2022-09-17T16:30:32;13.30;99.90
13638;DHT22;6892;50.916;4.356;2022-09-17T16:35:55;13.10;99.90
13638;DHT22;6892;50.916;4.356;2022-09-17T16:38:28;13.00;99.90
13638;DHT22;6892;50.916;4.356;2022-09-17T16:41:02;12.90;99.90
13638;DHT22;6892;50.916;4.356;2022-09-17T16:43:40;12.80;99.90
13638;DHT22;6892;50.916;4.356;2022-09-17T16:46:32;12.80;99.90
13638;DHT22;6892;50.916;4.356;2022-09-17T16:49:01;12.70;99.90
13638;DHT22;6892;50.916;4.356;2022-09-17T16:51:32;12.60;99.90
13638;DHT22;6892;50.916;4.356;2022-09-17T16:54:02;12.60;99.90
13638;DHT22;6892;50.916;4.356;2022-09-17T16:56:38;12.60;99.90
13638;DHT22;6892;50.916;4.356;2022-09-17T16:59:12;12.50;99.90
13638;DHT22;6892;50.916;4.356;2022-09-17T17:01:41;12.60;99.90
13638;DHT22;6892;50.916;4.356;2022-09-17T17:04:26;12.60;99.90
13638;DHT22;6892;50.916;4.356;2022-09-17T17:06:59;12.60;99.90
13638;DHT22;6892;50.916;4.356;2022-09-17T17:09:30;12.60;99.90
13638;DHT22;6892;50.916;4.356;2022-09-17T17:11:57;12.50;99.90
13638;DHT22;6892;50.916;4.356;2022-09-17T17:14:31;12.50;99.90
13638;DHT22;6892;50.916;4.356;2022-09-17T17:17:12;12.40;99.90
13638;DHT22;6892;50.916;4.356;2022-09-17T17:19:45;12.30;99.90
13638;DHT22;6892;50.916;4.356;2022-09-17T17:22:20;12.30;99.90
13638;DHT22;6892;50.916;4.356;2022-09-17T17:24:48;12.20;99.90
13638;DHT22;6892;50.916;4.356;2022-09-17T17:27:18;12.20;99.90
13638;DHT22;6892;50.916;4.356;2022-09-17T17:29:49;12.20;99.90
13638;DHT22;6892;50.916;4.356;2022-09-17T17:32:22;12.20;99.90
13638;DHT22;6892;50.916;4.356;2022-09-17T17:34:48;12.30;99.90
13638;DHT22;6892;50.916;4.356;2022-09-17T17:37:18;12.30;99.90
13638;DHT22;6892;50.916;4.356;2022-09-17T17:39:48;12.30;99.90
13638;DHT22;6892;50.916;4.356;2022-09-17T17:42:20;12.30;99.90
13638;DHT22;6892;50.916;4.356;2022-09-17T17:50:37;12.30;99.90
13638;DHT22;6892;50.916;4.356;2022-09-17T17:53:25;12.30;99.90
13638;DHT22;6892;50.916;4.356;2022-09-17T18:07:46;12.20;99.90
13638;DHT22;6892;50.916;4.356;2022-09-17T18:10:18;12.20;99.90
13638;DHT22;6892;50.916;4.356;2022-09-17T18:13:02;12.20;99.90
13638;DHT22;6892;50.916;4.356;2022-09-17T18:15:29;12.20;99.90
13638;DHT22;6892;50.916;4.356;2022-09-17T18:18:05;12.10;99.90
13638;DHT22;6892;50.916;4.356;2022-09-17T18:20:34;12.10;99.90
13638;DHT22;6892;50.916;4.356;2022-09-17T18:23:07;12.00;99.90
13638;DHT22;6892;50.916;4.356;2022-09-17T18:25:39;12.00;99.90
13638;DHT22;6892;50.916;4.356;2022-09-17T18:28:10;12.00;99.90
13638;DHT22;6892;50.916;4.356;2022-09-17T18:30:38;12.00;99.90
13638;DHT22;6892;50.916;4.356;2022-09-17T18:33:14;12.00;99.90
13638;DHT22;6892;50.916;4.356;2022-09-17T18:35:43;12.00;99.90
13638;DHT22;6892;50.916;4.356;2022-09-17T18:38:26;11.90;99.90
13638;DHT22;6892;50.916;4.356;2022-09-17T18:41:24;11.90;99.90
13638;DHT22;6892;50.916;4.356;2022-09-17T18:44:04;11.90;99.90
13638;DHT22;6892;50.916;4.356;2022-09-17T18:46:47;11.80;99.90
13638;DHT22;6892;50.916;4.356;2022-09-17T18:49:45;11.80;99.90
13638;DHT22;6892;50.916;4.356;2022-09-17T18:52:29;11.80;99.90
13638;DHT22;6892;50.916;4.356;2022-09-17T18:55:21;11.80;99.90
13638;DHT22;6892;50.916;4.356;2022-09-17T19:00:49;11.70;99.90
13638;DHT22;6892;50.916;4.356;2022-09-17T19:03:43;11.70;99.90
13638;DHT22;6892;50.916;4.356;2022-09-17T19:06:12;11.70;99.90
13638;DHT22;6892;50.916;4.356;2022-09-17T19:08:46;11.70;99.90
13638;DHT22;6892;50.916;4.356;2022-09-17T19:11:31;11.70;99.90
13638;DHT22;6892;50.916;4.356;2022-09-17T19:14:14;11.70;99.90
13638;DHT22;6892;50.916;4.356;2022-09-17T19:16:51;11.70;99.90
13638;DHT22;6892;50.916;4.356;2022-09-17T19:19:41;11.70;99.90
13638;DHT22;6892;50.916;4.356;2022-09-17T19:22:28;11.70;99.90
13638;DHT22;6892;50.916;4.356;2022-09-17T19:26:22;11.70;99.90
13638;DHT22;6892;50.916;4.356;2022-09-17T19:28:28;11.70;99.90
13638;DHT22;6892;50.916;4.356;2022-09-17T19:31:26;11.70;99.90
13638;DHT22;6892;50.916;4.356;2022-09-17T19:40:07;11.70;99.90
13638;DHT22;6892;50.916;4.356;2022-09-17T19:42:42;11.70;99.90
13638;DHT22;6892;50.916;4.356;2022-09-17T19:45:24;11.70;99.90
13638;DHT22;6892;50.916;4.356;2022-09-17T19:48:46;11.70;99.90
13638;DHT22;6892;50.916;4.356;2022-09-17T19:50:58;11.70;99.90
13638;DHT22;6892;50.916;4.356;2022-09-17T19:53:37;11.70;99.90
13638;DHT22;6892;50.916;4.356;2022-09-17T19:56:17;11.60;99.90
13638;DHT22;6892;50.916;4.356;2022-09-17T19:58:57;11.60;99.90
13638;DHT22;6892;50.916;4.356;2022-09-17T20:01:36;11.60;99.90
13638;DHT22;6892;50.916;4.356;2022-09-17T20:04:27;11.60;99.90
13638;DHT22;6892;50.916;4.356;2022-09-17T20:07:10;11.60;99.90
13638;DHT22;6892;50.916;4.356;2022-09-17T20:09:56;11.60;99.90
13638;DHT22;6892;50.916;4.356;2022-09-17T20:12:55;11.60;99.90
13638;DHT22;6892;50.916;4.356;2022-09-17T20:18:40;11.50;99.90